Time;durP1;ratioP1;P1;durP2;ratioP2;P2;SDS_P1;SDS_P2;PMS_P1;PMS_P2;Temp;Humidity;BMP_temperature;BMP_pressure;BME280_temperature;BME280_humidity;BME280_pressure;Samples;Min_cycle;Max_cycle;Signal;HPM_P1;HPM_P2
2024/03/12 00:01:08;;;;;;;3.60;1.83;;;8.50;65.80;;;9.94;50.72;97163.69;5012957;28;20047;-43
2024/03/12 00:03:42;;;;;;;4.43;1.77;;;8.40;65.90;;;9.88;50.72;97164.38;5018490;28;20429;-44
2024/03/12 00:06:11;;;;;;;2.85;1.83;;;8.40;66.30;;;9.85;50.80;97157.59;5031240;28;20043;-43
2024/03/12 00:08:39;;;;;;;3.20;2.20;;;8.40;66.40;;;9.83;50.52;97171.03;5024113;28;20040;-43
2024/03/12 00:11:07;;;;;;;3.97;1.70;;;8.30;66.80;;;9.80;50.95;97166.03;5013352;28;20054;-43
2024/03/12 00:13:35;;;;;;;2.47;1.80;;;8.30;66.90;;;9.76;50.86;97170.03;5016428;28;20051;-43
2024/03/12 00:16:05;;;;;;;2.57;1.90;;;8.30;67.10;;;9.75;50.87;97164.88;5030976;28;20033;-43
2024/03/12 00:18:33;;;;;;;1.80;1.60;;;8.20;67.00;;;9.71;50.98;97172.34;5030132;28;20041;-43
2024/03/12 00:21:01;;;;;;;3.50;1.60;;;8.30;66.90;;;9.69;51.22;97170.88;5013242;28;20521;-43
2024/03/12 00:23:29;;;;;;;3.77;1.60;;;8.20;66.80;;;9.69;51.00;97174.34;5013317;28;20051;-43
2024/03/12 00:25:56;;;;;;;4.00;2.40;;;8.20;66.90;;;9.68;51.34;97174.53;5029476;28;20049;-43
2024/03/12 00:28:24;;;;;;;4.27;2.33;;;8.20;66.70;;;9.64;51.18;97177.53;5030697;28;20036;-44
2024/03/12 00:30:53;;;;;;;4.37;2.60;;;8.20;66.90;;;9.64;51.29;97174.03;5017212;28;20495;-43
2024/03/12 00:33:21;;;;;;;3.23;1.90;;;8.20;66.70;;;9.60;50.95;97172.72;5013104;28;20042;-43
2024/03/12 00:35:51;;;;;;;3.03;1.90;;;8.20;66.70;;;9.57;51.36;97173.84;5024062;28;20055;-43
2024/03/12 00:38:18;;;;;;;2.80;1.50;;;8.10;67.00;;;9.54;51.42;97168.03;5030756;28;20051;-43
2024/03/12 00:40:47;;;;;;;2.23;1.50;;;8.10;66.90;;;9.51;51.44;97171.88;5021888;28;20504;-43
2024/03/12 00:43:15;;;;;;;6.77;2.97;;;8.10;67.00;;;9.51;51.32;97176.38;5011654;28;20050;-43
2024/03/12 00:45:44;;;;;;;2.33;1.53;;;8.10;67.10;;;9.48;51.34;97172.22;5033098;28;20049;-42
2024/03/12 00:48:13;;;;;;;3.30;1.60;;;8.10;67.10;;;9.47;51.57;97181.19;5030306;28;20037;-43
2024/03/12 00:50:45;;;;;;;2.67;1.80;;;8.00;67.30;;;9.45;51.46;97184.00;5026053;28;20068;-43
2024/03/12 00:53:13;;;;;;;2.47;1.87;;;8.00;67.60;;;9.45;51.41;97188.47;5012072;28;20059;-43
2024/03/12 00:55:41;;;;;;;3.67;1.80;;;8.00;67.60;;;9.41;51.70;97184.50;5016582;28;20512;-43
2024/03/12 00:58:10;;;;;;;3.20;1.70;;;8.00;67.60;;;9.39;51.82;97182.00;5028424;28;20067;-43
2024/03/12 01:00:40;;;;;;;2.13;1.70;;;8.00;67.60;;;9.35;51.67;97185.16;5027934;28;20049;-43
2024/03/12 01:03:09;;;;;;;2.50;1.90;;;7.90;68.00;;;9.33;52.07;97187.16;5011782;28;20050;-43
2024/03/12 01:05:37;;;;;;;3.03;1.97;;;7.90;68.60;;;9.30;51.89;97182.16;5013047;28;20055;-43
2024/03/12 01:08:07;;;;;;;2.10;1.33;;;7.90;68.80;;;9.29;52.06;97183.16;5030092;28;20041;-43
2024/03/12 01:10:36;;;;;;;3.80;2.53;;;7.90;68.90;;;9.23;52.12;97182.00;5029743;28;20040;-43
2024/03/12 01:13:11;;;;;;;2.43;1.73;;;7.80;69.10;;;9.23;52.42;97179.34;5004834;28;20049;-43
2024/03/12 01:15:39;;;;;;;3.53;2.10;;;7.80;69.10;;;9.22;52.46;97188.28;5013338;28;20520;-43
2024/03/12 01:18:08;;;;;;;2.17;1.80;;;7.80;69.20;;;9.21;52.26;97186.66;5030151;28;20044;-43
2024/03/12 01:20:36;;;;;;;3.80;1.80;;;7.80;69.30;;;9.16;52.53;97188.94;5029312;28;20052;-43
2024/03/12 01:23:04;;;;;;;3.03;1.90;;;7.70;70.00;;;9.16;52.39;97183.63;5029942;28;20040;-43
2024/03/12 01:25:35;;;;;;;2.57;1.70;;;7.70;69.90;;;9.15;52.48;97188.13;5028715;28;20055;-43
2024/03/12 01:28:05;;;;;;;2.10;1.70;;;7.70;70.10;;;9.14;52.79;97190.94;5004597;28;20046;-43
2024/03/12 01:30:36;;;;;;;3.07;2.00;;;7.70;70.10;;;9.13;52.75;97191.91;5011983;28;20049;-42
2024/03/12 01:33:07;;;;;;;2.97;1.57;;;7.70;70.10;;;9.10;52.85;97193.09;5004433;28;20042;-43
2024/03/12 01:35:38;;;;;;;5.23;1.70;;;7.70;70.10;;;9.06;53.02;97192.56;5011966;28;20039;-43
2024/03/12 01:38:08;;;;;;;3.37;2.50;;;7.70;69.90;;;9.06;52.87;97189.91;5003013;28;20528;-43
2024/03/12 01:40:39;;;;;;;2.73;2.10;;;7.70;69.80;;;9.04;52.64;97186.59;5011650;28;20065;-43
2024/03/12 01:43:07;;;;;;;3.40;2.00;;;7.60;69.70;;;9.01;52.90;97186.09;5004655;28;20046;-43
2024/03/12 01:45:36;;;;;;;2.27;1.70;;;7.60;69.80;;;8.98;53.01;97197.06;5011000;28;20054;-43
2024/03/12 01:48:08;;;;;;;3.03;1.67;;;7.60;70.00;;;8.94;52.94;97193.88;5028411;28;20039;-44
2024/03/12 01:50:41;;;;;;;3.67;2.33;;;7.50;70.00;;;8.99;53.00;97196.03;5029101;28;20048;-43
2024/03/12 01:53:10;;;;;;;3.03;1.93;;;7.50;70.40;;;8.98;52.71;97200.53;5004489;28;20046;-43
2024/03/12 01:55:42;;;;;;;3.13;2.07;;;7.50;70.50;;;8.96;52.79;97204.34;5011783;28;20414;-43
2024/03/12 01:58:16;;;;;;;2.30;1.50;;;7.50;70.50;;;8.95;53.07;97205.31;5005216;28;20038;-43
2024/03/12 02:00:45;;;;;;;2.80;1.73;;;7.50;70.50;;;8.92;53.03;97208.28;5013357;28;20047;-43
2024/03/12 02:03:15;;;;;;;2.40;1.73;;;7.50;70.40;;;8.91;52.84;97211.94;5029345;28;20048;-43
2024/03/12 02:05:42;;;;;;;4.27;2.27;;;7.50;70.40;;;8.87;53.05;97211.44;5028967;28;20052;-43
2024/03/12 02:08:11;;;;;;;3.03;1.60;;;7.40;70.50;;;8.87;53.27;97214.09;5011966;28;20421;-43
2024/03/12 02:10:38;;;;;;;1.90;1.57;;;7.50;70.30;;;8.86;53.32;97215.09;5010063;28;20046;-43
2024/03/12 02:13:06;;;;;;;4.10;2.03;;;7.40;70.40;;;8.86;53.11;97209.78;5028060;28;20055;-43
2024/03/12 02:15:34;;;;;;;2.27;1.40;;;7.40;70.60;;;8.87;53.22;97216.75;5029297;28;20063;-43
2024/03/12 02:18:02;;;;;;;4.83;3.03;;;7.50;70.50;;;8.86;53.11;97215.94;5015827;28;20063;-43
2024/03/12 02:20:30;;;;;;;3.40;1.97;;;7.50;70.60;;;8.88;52.88;97213.13;5011562;28;20277;-43
2024/03/12 02:22:59;;;;;;;3.20;1.80;;;7.40;70.10;;;8.90;53.21;97223.56;5021231;28;20047;-43
2024/03/12 02:25:26;;;;;;;4.90;1.80;;;7.40;70.10;;;8.90;53.10;97219.09;5029232;28;20040;-43
2024/03/12 02:27:56;;;;;;;2.57;2.07;;;7.50;70.20;;;8.87;53.13;97222.88;5020872;28;20412;-43
2024/03/12 02:30:24;;;;;;;3.77;1.40;;;7.40;70.10;;;8.90;52.95;97215.59;5011228;28;20047;-43
2024/03/12 02:32:52;;;;;;;1.87;1.50;;;7.50;70.00;;;8.86;53.33;97221.25;5016322;28;20050;-43
2024/03/12 02:35:20;;;;;;;2.47;1.63;;;7.50;70.20;;;8.86;53.36;97215.09;5027872;28;20044;-43
2024/03/12 02:37:47;;;;;;;2.07;1.50;;;7.40;70.10;;;8.85;53.32;97218.72;5027359;28;20108;-43
2024/03/12 02:40:15;;;;;;;2.80;1.83;;;7.40;70.20;;;8.85;53.08;97224.88;5011568;28;20051;-43
2024/03/12 02:42:44;;;;;;;2.13;1.50;;;7.40;70.30;;;8.85;53.39;97232.00;5000974;28;20143;-43
2024/03/12 02:45:15;;;;;;;1.87;1.40;;;7.40;70.60;;;8.82;53.39;97233.16;5003696;28;20071;-43
2024/03/12 02:47:45;;;;;;;1.67;1.40;;;7.40;70.90;;;8.82;53.45;97229.66;5011782;28;20047;-43
2024/03/12 02:50:18;;;;;;;2.60;1.83;;;7.30;71.00;;;8.81;53.32;97238.63;5006411;28;20038;-43
2024/03/12 02:52:45;;;;;;;2.20;1.63;;;7.30;70.90;;;8.79;53.34;97235.31;5015078;28;20051;-43
2024/03/12 02:55:14;;;;;;;1.97;1.77;;;7.30;71.30;;;8.78;53.50;97238.94;5015140;28;20035;-43
2024/03/12 02:57:43;;;;;;;2.13;1.77;;;7.30;71.30;;;8.77;53.30;97243.41;5014883;28;20202;-43
2024/03/12 03:00:11;;;;;;;2.60;1.90;;;7.30;71.50;;;8.74;53.43;97241.06;5030723;28;20419;-43
2024/03/12 03:02:43;;;;;;;2.23;1.70;;;7.20;71.90;;;8.73;53.74;97230.66;5031379;28;20501;-42
2024/03/12 03:05:13;;;;;;;2.30;1.87;;;7.20;71.90;;;8.73;53.75;97244.75;5015440;28;20047;-43
2024/03/12 03:07:41;;;;;;;2.57;1.80;;;7.20;72.10;;;8.75;54.01;97250.72;5014839;28;20043;-43
2024/03/12 03:10:10;;;;;;;3.47;2.00;;;7.30;72.20;;;8.75;53.92;97242.75;5029193;28;20040;-42
2024/03/12 03:12:41;;;;;;;2.20;1.53;;;7.30;72.10;;;8.76;54.17;97239.13;5032211;28;20040;-43
2024/03/12 03:15:12;;;;;;;2.07;1.67;;;7.30;72.00;;;8.78;54.22;97245.09;5017650;28;20062;-43
2024/03/12 03:17:43;;;;;;;2.30;1.77;;;7.40;71.80;;;8.81;54.06;97249.25;5014697;28;20410;-43
2024/03/12 03:20:12;;;;;;;3.03;2.10;;;7.50;71.90;;;8.85;54.03;97243.44;5028070;28;20044;-43
2024/03/12 03:22:44;;;;;;;3.13;2.37;;;7.50;71.90;;;8.85;54.00;97239.97;5030801;28;20522;-43
2024/03/12 03:25:12;;;;;;;2.37;2.00;;;7.40;71.70;;;8.85;54.17;97245.28;5016503;28;20391;-43
2024/03/12 03:27:41;;;;;;;2.63;2.00;;;7.40;71.90;;;8.85;54.08;97248.75;5014543;28;20055;-43
2024/03/12 03:30:17;;;;;;;3.47;2.07;;;7.40;71.80;;;8.85;54.01;97253.25;5027570;28;20410;-43
2024/03/12 03:32:45;;;;;;;2.70;2.10;;;7.40;72.10;;;8.86;54.04;97253.09;5031743;28;20048;-42
2024/03/12 03:35:13;;;;;;;2.87;2.20;;;7.40;72.10;;;8.86;54.15;97245.13;5015963;28;20039;-43
2024/03/12 03:37:42;;;;;;;2.57;2.00;;;7.40;72.10;;;8.86;54.30;97261.06;5014157;28;20058;-43
2024/03/12 03:40:11;;;;;;;2.73;2.10;;;7.40;72.50;;;8.91;54.26;97259.75;5026777;28;20062;-43
2024/03/12 03:42:41;;;;;;;3.10;2.20;;;7.40;72.50;;;8.92;54.36;97266.69;5031663;28;20411;-43
2024/03/12 03:45:09;;;;;;;3.23;2.07;;;7.40;72.30;;;8.85;54.32;97256.72;5015410;28;20427;-43
2024/03/12 03:47:37;;;;;;;2.73;2.03;;;7.40;72.50;;;8.85;54.34;97261.22;5013901;28;20422;-43
2024/03/12 03:50:07;;;;;;;3.67;2.53;;;7.40;72.70;;;8.88;54.40;97263.56;5021999;28;20053;-43
2024/03/12 03:52:36;;;;;;;3.17;2.30;;;7.40;72.80;;;8.91;54.16;97268.53;5031773;28;20041;-43
2024/03/12 03:55:06;;;;;;;2.47;1.83;;;7.40;72.70;;;8.91;54.43;97271.19;5022781;28;20044;-43
2024/03/12 03:57:35;;;;;;;3.70;2.30;;;7.40;72.30;;;8.86;54.45;97274.31;5011945;28;20058;-43
2024/03/12 04:00:12;;;;;;;5.43;2.40;;;7.40;72.60;;;8.88;54.25;97282.13;5018916;28;20055;-43
2024/03/12 04:02:43;;;;;;;3.53;2.00;;;7.40;72.70;;;8.88;54.25;97284.78;5031281;28;20053;-43
2024/03/12 04:05:12;;;;;;;3.97;2.30;;;7.40;72.80;;;8.91;54.26;97286.28;5019156;28;20045;-43
2024/03/12 04:07:43;;;;;;;2.77;2.13;;;7.40;72.60;;;8.91;54.36;97292.41;5013753;28;20047;-42
2024/03/12 04:10:12;;;;;;;3.00;1.73;;;7.40;72.40;;;8.92;54.52;97294.09;5025652;28;20051;-43
2024/03/12 04:12:44;;;;;;;3.17;2.10;;;7.50;72.50;;;8.94;54.63;97297.44;5031105;28;20500;-43
2024/03/12 04:15:13;;;;;;;5.17;2.40;;;7.50;72.70;;;8.94;54.56;97301.91;5017092;28;20041;-43
2024/03/12 04:17:43;;;;;;;3.67;2.27;;;7.40;72.60;;;8.95;54.38;97292.94;5013896;28;20050;-42
2024/03/12 04:20:11;;;;;;;3.43;2.07;;;7.40;72.60;;;8.97;54.57;97299.75;5024520;28;20055;-43
2024/03/12 04:22:43;;;;;;;4.30;2.03;;;7.40;72.70;;;8.98;54.59;97301.41;5029535;28;20056;-42
2024/03/12 04:25:12;;;;;;;2.97;2.10;;;7.50;72.90;;;9.02;54.35;97312.56;5018862;28;20566;-43
2024/03/12 04:27:40;;;;;;;3.17;2.87;;;7.50;73.00;;;9.00;54.51;97318.03;5013545;28;20061;-42
2024/03/12 04:30:10;;;;;;;3.80;2.10;;;7.50;72.70;;;8.96;54.41;97326.47;5021029;28;20051;-43
2024/03/12 04:32:40;;;;;;;4.43;2.30;;;7.40;73.40;;;8.96;54.55;97337.91;5030754;28;20442;-43
2024/03/12 04:35:12;;;;;;;3.33;2.10;;;7.50;73.50;;;8.92;55.02;97343.69;5019790;28;20044;-43
2024/03/12 04:37:41;;;;;;;2.50;2.00;;;7.50;74.20;;;8.92;55.05;97344.53;5013460;28;20054;-43
2024/03/12 04:40:11;;;;;;;3.27;2.47;;;7.40;74.80;;;8.95;55.30;97340.72;5019958;28;20043;-43
2024/03/12 04:42:39;;;;;;;3.83;2.30;;;7.40;75.30;;;8.99;55.06;97348.22;5030416;28;20067;-45
2024/03/12 04:45:08;;;;;;;2.77;2.10;;;7.40;75.90;;;8.98;55.15;97340.44;5023449;28;20049;-43
2024/03/12 04:47:40;;;;;;;3.37;2.57;;;7.50;76.00;;;9.01;55.46;97340.09;5013068;28;20054;-43
2024/03/12 04:50:09;;;;;;;3.40;2.43;;;7.50;77.30;;;9.02;55.55;97341.75;5019155;28;20047;-43
2024/03/12 04:52:36;;;;;;;4.57;2.67;;;7.50;76.80;;;9.02;55.70;97347.91;5029217;28;20412;-43
2024/03/12 04:55:05;;;;;;;2.67;2.10;;;7.40;76.90;;;9.05;55.75;97352.06;5026267;28;20068;-43
2024/03/12 04:57:35;;;;;;;3.40;2.50;;;7.40;77.10;;;9.08;55.73;97354.41;5012911;28;20054;-43
2024/03/12 05:00:13;;;;;;;4.63;2.80;;;7.40;77.30;;;9.07;55.61;97353.56;5015463;28;20055;-42
2024/03/12 05:02:42;;;;;;;3.73;2.50;;;7.40;77.50;;;9.11;55.61;97356.75;5030202;28;20667;-43
2024/03/12 05:05:14;;;;;;;9.60;2.97;;;7.40;78.20;;;9.12;55.54;97361.06;5022188;28;20044;-43
2024/03/12 05:07:41;;;;;;;4.07;2.70;;;7.40;78.10;;;9.08;55.94;97362.38;5012801;28;20046;-43
2024/03/12 05:10:11;;;;;;;3.43;2.57;;;7.40;78.30;;;9.04;56.10;97371.66;5018715;28;20054;-43
2024/03/12 05:12:39;;;;;;;4.07;2.43;;;7.40;78.30;;;9.01;56.19;97364.81;5028851;28;20041;-43
2024/03/12 05:15:09;;;;;;;3.80;2.37;;;7.40;78.10;;;9.05;56.08;97375.94;5023824;28;20053;-42
2024/03/12 05:17:37;;;;;;;6.17;2.73;;;7.40;78.50;;;9.06;55.96;97380.28;5012622;28;20058;-43
2024/03/12 05:20:09;;;;;;;3.37;2.40;;;7.40;78.30;;;9.05;56.33;97378.59;5015161;28;20050;-43
2024/03/12 05:22:37;;;;;;;3.57;2.80;;;7.40;78.40;;;9.04;56.23;97388.41;5029695;28;20044;-43
2024/03/12 05:25:10;;;;;;;3.53;3.00;;;7.40;78.70;;;9.03;56.36;97397.38;5026794;28;20045;-43
2024/03/12 05:27:38;;;;;;;5.00;2.60;;;7.40;78.90;;;9.05;56.17;97398.06;5011231;28;20502;-43
2024/03/12 05:30:10;;;;;;;4.33;2.87;;;7.40;78.80;;;9.07;56.22;97406.69;5014662;28;20043;-43
2024/03/12 05:32:43;;;;;;;4.00;3.00;;;7.40;78.50;;;9.07;56.33;97401.38;5029924;28;20041;-43
2024/03/12 05:35:18;;;;;;;6.45;4.00;;;7.40;78.70;;;9.11;56.02;97404.56;5023279;28;20056;-43
2024/03/12 05:38:02;;;;;;;4.30;3.37;;;7.40;78.60;;;9.11;56.19;97401.91;5011316;28;20043;-43
2024/03/12 05:40:42;;;;;;;4.40;4.00;;;7.40;78.60;;;9.10;56.65;97404.72;5004295;28;20046;-43
2024/03/12 05:48:49;;;;;;;8.87;8.07;;;7.50;78.70;;;9.11;56.50;97409.88;5007300;28;20366;-43
2024/03/12 05:51:21;;;;;;;4.00;3.27;;;7.50;78.70;;;9.12;56.62;97414.19;5021775;28;20043;-43
2024/03/12 05:53:49;;;;;;;3.87;3.30;;;7.60;78.60;;;9.14;56.61;97406.88;5029251;28;20055;-43
2024/03/12 05:56:17;;;;;;;3.50;2.97;;;7.60;78.70;;;9.17;56.38;97414.53;5020853;28;20048;-43
2024/03/12 05:58:46;;;;;;;3.23;2.40;;;7.50;79.00;;;9.22;56.66;97414.06;5012137;28;20047;-43
2024/03/12 06:01:14;;;;;;;4.87;3.47;;;7.60;79.10;;;9.25;56.38;97419.88;5017889;28;20054;-43
2024/03/12 06:03:42;;;;;;;3.20;2.63;;;7.60;78.70;;;9.27;56.37;97417.91;5029267;28;20041;-43
2024/03/12 06:06:10;;;;;;;4.10;2.53;;;7.70;78.70;;;9.30;56.33;97421.25;5025891;28;20048;-43
2024/03/12 06:08:38;;;;;;;4.07;2.60;;;7.60;78.50;;;9.31;56.67;97420.25;5011940;28;20039;-43
2024/03/12 06:11:06;;;;;;;3.70;2.60;;;7.60;78.60;;;9.32;56.59;97416.59;5010394;28;20043;-43
2024/03/12 06:13:34;;;;;;;3.43;2.53;;;7.70;78.40;;;9.33;56.55;97426.25;5029140;28;20519;-43
2024/03/12 06:16:01;;;;;;;5.73;2.73;;;7.70;78.40;;;9.34;56.59;97423.41;5029128;28;20036;-43
2024/03/12 06:18:29;;;;;;;6.03;2.50;;;7.70;78.50;;;9.35;56.64;97430.41;5013138;28;20035;-46
2024/03/12 06:20:57;;;;;;;2.87;2.40;;;7.70;78.60;;;9.37;56.50;97428.41;5011440;28;20058;-44
2024/03/12 06:23:25;;;;;;;3.57;2.63;;;7.70;78.80;;;9.39;56.54;97433.56;5026005;28;20061;-45
2024/03/12 06:25:53;;;;;;;3.37;2.67;;;7.70;78.70;;;9.38;56.34;97434.56;5032405;28;20048;-46
2024/03/12 06:28:21;;;;;;;4.27;3.10;;;7.70;78.30;;;9.36;56.71;97436.53;5023224;28;20463;-44
2024/03/12 06:30:49;;;;;;;4.90;3.03;;;7.70;78.60;;;9.41;56.47;97440.38;5014898;28;20055;-44
2024/03/12 06:33:18;;;;;;;2.80;2.30;;;7.80;78.60;;;9.42;56.82;97439.41;5021784;28;20047;-44
2024/03/12 06:35:47;;;;;;;4.40;3.23;;;7.80;78.40;;;9.45;56.78;97446.22;5032415;28;20500;-45
2024/03/12 06:38:15;;;;;;;5.60;3.40;;;7.80;78.60;;;9.50;56.69;97437.75;5018474;28;20044;-45
2024/03/12 06:40:44;;;;;;;5.60;4.90;;;7.90;78.30;;;9.52;56.45;97449.06;5013861;28;20058;-44
2024/03/12 06:43:13;;;;;;;3.10;2.50;;;7.90;78.40;;;9.53;56.57;97451.56;5017393;28;20054;-46
2024/03/12 06:45:42;;;;;;;3.90;2.80;;;8.00;78.30;;;9.57;56.37;97455.56;5020334;28;20062;-45
2024/03/12 06:48:10;;;;;;;4.40;2.90;;;8.00;78.20;;;9.62;56.56;97463.09;5015209;28;20054;-45
2024/03/12 06:50:38;;;;;;;3.37;2.43;;;8.00;78.20;;;9.64;56.29;97453.94;5032059;28;20052;-43
2024/03/12 06:53:06;;;;;;;4.90;2.87;;;8.00;78.30;;;9.68;56.31;97459.78;5032471;28;20499;-44
2024/03/12 06:55:33;;;;;;;3.40;2.50;;;8.00;78.30;;;9.71;56.21;97464.75;5015437;28;20054;-43
2024/03/12 06:58:11;;;;;;;3.00;2.40;;;7.90;78.30;;;9.72;56.33;97469.09;5014964;28;20050;-45
2024/03/12 07:00:44;;;;;;;3.80;3.20;;;7.90;78.60;;;9.75;56.57;97467.94;5014540;28;20047;-44
2024/03/12 07:03:14;;;;;;;5.63;2.67;;;7.90;79.30;;;9.76;56.35;97466.97;5015836;28;20043;-44
2024/03/12 07:05:48;;;;;;;3.57;2.60;;;7.80;79.60;;;9.78;56.12;97478.25;5031949;28;20051;-44
2024/03/12 07:08:17;;;;;;;;;;;7.90;79.90;;;9.76;56.45;97473.09;5028542;28;20060;-45
2024/03/12 07:10:45;;;;;;;3.77;2.50;;;7.90;79.60;;;9.82;56.11;97479.59;5013763;28;19956;-44
2024/03/12 07:13:13;;;;;;;4.50;3.00;;;7.90;79.60;;;9.82;56.33;97483.09;5015639;28;20047;-43
2024/03/12 07:15:42;;;;;;;3.33;2.50;;;7.90;79.80;;;9.83;56.31;97479.44;5031557;28;20524;-43
2024/03/12 07:18:11;;;;;;;2.83;2.17;;;7.90;79.80;;;9.85;56.17;97489.94;5031284;28;20044;-45
2024/03/12 07:20:39;;;;;;;3.20;2.63;;;7.90;79.70;;;9.84;56.44;97477.63;5005978;28;20043;-43
2024/03/12 07:23:07;;;;;;;4.50;2.57;;;7.90;79.80;;;9.82;56.40;97482.25;5014050;28;20051;-44
2024/03/12 07:25:34;;;;;;;3.40;2.80;;;7.90;79.80;;;9.82;56.29;97480.44;5029315;28;20037;-45
2024/03/12 07:28:05;;;;;;;6.73;2.60;;;8.00;79.30;;;9.82;56.18;97488.41;5031443;28;20492;-45
2024/03/12 07:30:35;;;;;;;2.90;2.40;;;8.00;78.90;;;9.84;56.06;97490.91;5016338;28;20042;-45
2024/03/12 07:33:03;;;;;;;2.90;2.43;;;8.00;79.10;;;9.85;56.54;97495.25;5013924;28;20414;-51
2024/03/12 07:35:35;;;;;;;3.57;2.53;;;8.00;78.70;;;9.83;56.23;97487.44;5025617;28;20383;-45
2024/03/12 07:38:03;;;;;;;5.10;2.87;;;8.00;78.80;;;9.81;56.33;97488.59;5030168;28;20071;-44
2024/03/12 07:40:34;;;;;;;5.83;2.90;;;8.00;78.60;;;9.84;56.48;97498.88;5018191;28;20049;-45
2024/03/12 07:43:04;;;;;;;7.67;2.57;;;8.00;78.70;;;9.86;56.51;97491.56;5013731;28;20057;-45
2024/03/12 07:45:32;;;;;;;4.87;2.27;;;8.10;78.80;;;9.88;56.48;97504.72;5024450;28;20046;-44
2024/03/12 07:47:59;;;;;;;3.30;2.60;;;8.10;78.50;;;9.89;56.40;97501.06;5029840;28;20044;-44
2024/03/12 07:50:31;;;;;;;3.93;2.80;;;8.10;78.70;;;9.89;56.59;97504.56;5021425;28;20060;-47
2024/03/12 07:52:59;;;;;;;3.37;2.20;;;8.10;78.50;;;9.94;56.17;97504.91;5013519;28;20047;-45
2024/03/12 07:55:28;;;;;;;3.73;2.40;;;8.20;78.40;;;9.97;56.08;97509.91;5021708;28;20042;-45
2024/03/12 07:57:55;;;;;;;4.10;2.07;;;8.20;78.20;;;9.96;56.41;97505.56;5030929;28;20037;-46
2024/03/12 08:00:24;;;;;;;2.60;2.20;;;8.20;78.10;;;9.96;56.55;97510.88;5025333;28;20048;-46
2024/03/12 08:02:51;;;;;;;3.73;2.07;;;8.30;78.00;;;9.99;56.50;97517.72;5013532;28;20047;-44
2024/03/12 08:05:19;;;;;;;2.43;2.10;;;8.30;77.70;;;10.02;56.31;97517.41;5015311;28;20050;-44
2024/03/12 08:07:47;;;;;;;2.97;2.17;;;8.30;78.00;;;10.07;56.33;97523.06;5030790;28;20439;-43
2024/03/12 08:10:15;;;;;;;3.63;2.40;;;8.40;77.60;;;10.08;56.08;97529.22;5030328;28;20056;-43
2024/03/12 08:12:43;;;;;;;2.60;2.20;;;8.40;77.80;;;10.08;56.43;97526.56;5030677;28;20115;-43
2024/03/12 08:15:12;;;;;;;3.23;2.33;;;8.40;77.80;;;10.09;56.66;97521.09;5030741;28;20041;-43
2024/03/12 08:17:39;;;;;;;2.90;2.00;;;8.40;77.80;;;10.13;56.17;97525.09;5015016;28;20426;-44
2024/03/12 08:20:13;;;;;;;2.10;1.80;;;8.50;77.90;;;10.16;56.20;97529.28;5012896;28;20043;-43
2024/03/12 08:22:41;;;;;;;3.53;1.85;;;8.50;77.50;;;10.18;56.51;97522.78;5028278;28;20044;-44
2024/03/12 08:25:11;;;;;;;3.40;2.00;;;8.60;77.20;;;10.18;56.37;97533.44;5030458;28;20056;-44
2024/03/12 08:27:40;;;;;;;2.23;1.80;;;8.60;77.40;;;10.19;56.59;97528.94;5015471;28;20506;-43
2024/03/12 08:30:09;;;;;;;3.47;1.60;;;8.60;77.40;;;10.18;56.35;97532.59;5012676;28;20544;-44
2024/03/12 08:32:37;;;;;;;2.20;1.73;;;8.60;77.50;;;10.21;56.11;97535.75;5025189;28;20035;-43
2024/03/12 08:35:07;;;;;;;2.23;1.50;;;8.60;77.40;;;10.24;56.32;97526.63;5030354;28;20044;-44
2024/03/12 08:37:35;;;;;;;2.93;1.80;;;8.60;77.20;;;10.28;56.19;97532.47;5019911;28;20041;-43
2024/03/12 08:40:07;;;;;;;2.43;1.70;;;8.70;76.90;;;10.29;56.33;97536.78;5011273;28;20065;-43
2024/03/12 08:42:35;;;;;;;2.70;1.73;;;8.70;76.80;;;10.27;56.34;97536.94;5023467;28;20043;-43
2024/03/12 08:45:17;;;;;;;3.20;1.63;;;8.70;77.00;;;10.24;56.35;97540.75;5028643;28;20436;-44
2024/03/12 08:47:49;;;;;;;2.20;1.77;;;8.70;76.90;;;10.21;56.27;97541.06;5004743;28;20113;-44
2024/03/12 08:50:17;;;;;;;4.70;2.63;;;8.70;77.00;;;10.21;56.42;97545.56;5011550;28;20057;-43
2024/03/12 08:52:46;;;;;;;3.60;2.53;;;8.70;76.90;;;10.19;56.54;97537.75;5029192;28;20412;-43
2024/03/12 08:55:13;;;;;;;4.30;2.37;;;8.70;77.30;;;10.24;56.78;97548.75;5029732;28;20037;-43
2024/03/12 08:57:41;;;;;;;4.80;3.90;;;8.70;77.60;;;10.23;56.84;97547.06;5015879;28;20043;-43
2024/03/12 09:00:13;;;;;;;3.10;2.27;;;8.70;77.50;;;10.23;56.88;97555.03;5011853;28;20062;-43
2024/03/12 09:02:41;;;;;;;3.07;2.07;;;8.70;77.80;;;10.23;56.68;97552.38;5025719;28;20054;-43
2024/03/12 09:05:09;;;;;;;2.80;2.07;;;8.60;78.00;;;10.28;56.59;97553.75;5029931;28;20234;-44
2024/03/12 09:07:37;;;;;;;3.50;2.10;;;8.70;78.20;;;10.33;56.87;97554.97;5018367;28;20755;-44
2024/03/12 09:10:11;;;;;;;4.77;2.27;;;8.80;78.00;;;10.39;56.73;97551.66;5010802;28;20050;-43
2024/03/12 09:12:40;;;;;;;4.93;2.40;;;8.80;78.00;;;10.40;56.79;97553.31;5023090;28;20054;-43
2024/03/12 09:15:09;;;;;;;4.13;2.93;;;8.80;77.50;;;10.40;56.69;97555.13;5029637;28;20040;-43
2024/03/12 09:17:39;;;;;;;4.03;2.20;;;8.80;77.80;;;10.42;56.92;97556.63;5019842;28;20051;-44
2024/03/12 09:20:10;;;;;;;4.93;2.83;;;8.90;77.70;;;10.47;56.74;97556.16;4990541;28;20041;-43
2024/03/12 09:22:39;;;;;;;5.03;3.20;;;8.90;77.50;;;10.42;57.02;97563.78;5019336;28;20415;-43
2024/03/12 09:25:08;;;;;;;5.60;3.57;;;8.80;77.90;;;10.28;57.07;97562.56;5012223;28;20490;-43
2024/03/12 09:27:37;;;;;;;6.77;4.93;;;8.80;78.00;;;10.31;57.29;97562.25;5020346;28;20077;-43
2024/03/12 09:30:07;;;;;;;5.47;3.17;;;8.80;78.20;;;10.29;57.47;97563.38;5028681;28;20411;-44
2024/03/12 09:32:35;;;;;;;7.97;4.50;;;8.80;78.30;;;10.19;57.49;97561.69;5021669;28;20373;-43
2024/03/12 09:35:03;;;;;;;10.10;5.67;;;8.70;78.90;;;10.21;57.28;97569.50;5010913;28;20490;-43
2024/03/12 09:37:33;;;;;;;11.47;6.20;;;8.70;79.30;;;10.26;57.51;97569.88;5013777;28;20042;-44
2024/03/12 09:40:05;;;;;;;13.80;7.87;;;8.70;79.70;;;10.34;57.33;97574.41;5029030;28;20036;-43
2024/03/12 09:42:36;;;;;;;6.30;4.37;;;8.80;78.70;;;10.35;57.78;97581.38;5024270;28;20036;-43
2024/03/12 09:45:08;;;;;;;8.07;4.47;;;8.80;78.90;;;10.29;57.96;97576.69;4986893;28;20044;-43
2024/03/12 09:47:36;;;;;;;8.70;5.40;;;8.80;79.50;;;10.35;57.70;97576.06;5017540;28;20044;-43
2024/03/12 09:50:10;;;;;;;9.33;4.73;;;8.80;79.20;;;10.40;57.67;97579.91;5011312;28;20414;-44
2024/03/12 09:52:42;;;;;;;7.47;4.73;;;8.90;79.10;;;10.51;57.88;97580.63;5018784;28;20055;-45
2024/03/12 09:55:11;;;;;;;9.87;4.77;;;9.10;78.90;;;10.50;57.43;97587.75;5028025;28;20051;-45
2024/03/12 09:57:44;;;;;;;10.30;5.97;;;9.10;78.70;;;10.57;57.64;97583.47;5018972;28;20060;-43
2024/03/12 10:00:18;;;;;;;8.00;4.88;;;9.10;78.50;;;10.66;57.47;97594.94;5011074;28;20062;-43
2024/03/12 10:02:48;;;;;;;9.27;5.33;;;9.20;78.50;;;10.76;57.23;97592.13;5023325;28;20051;-44
2024/03/12 10:05:24;;;;;;;9.70;4.77;;;9.30;78.10;;;10.79;57.48;97590.00;5028916;28;20420;-44
2024/03/12 10:08:14;;;;;;;8.70;6.00;;;9.40;77.90;;;10.90;57.48;97599.50;5012370;28;20093;-43
2024/03/12 10:10:45;;;;;;;7.87;5.00;;;9.50;77.40;;;11.01;57.02;97601.00;5002047;28;20048;-44
2024/03/12 10:13:15;;;;;;;7.77;4.77;;;9.70;76.80;;;10.82;57.15;97597.66;5011404;28;20039;-44
2024/03/12 10:15:59;;;;;;;10.80;4.97;;;9.50;76.10;;;10.91;57.09;97597.66;5017409;28;20039;-44
2024/03/12 10:18:30;;;;;;;6.53;4.43;;;9.50;76.80;;;10.90;56.49;97610.16;4966786;28;20043;-44
2024/03/12 10:21:01;;;;;;;8.30;4.07;;;9.50;75.80;;;10.88;56.44;97603.34;5025938;28;20413;-44
2024/03/12 10:23:36;;;;;;;7.67;4.33;;;9.50;76.30;;;10.85;56.48;97604.47;5011346;28;20046;-45
2024/03/12 10:26:11;;;;;;;5.50;3.40;;;9.50;76.10;;;10.76;56.50;97605.47;5004742;28;20050;-44
2024/03/12 10:28:40;;;;;;;5.80;3.67;;;9.30;76.10;;;10.81;56.60;97606.63;5017555;28;20051;-44
2024/03/12 10:31:11;;;;;;;6.40;3.60;;;9.40;76.30;;;10.72;56.99;97609.44;5026730;28;20093;-44
2024/03/12 10:33:48;;;;;;;9.23;4.33;;;9.30;77.00;;;10.81;56.89;97609.28;5021719;28;20040;-43
2024/03/12 10:36:30;;;;;;;6.87;3.43;;;9.30;76.30;;;10.75;56.98;97609.97;5011443;28;20053;-45
2024/03/12 10:38:59;;;;;;;8.07;4.67;;;9.30;76.30;;;10.64;57.21;97620.91;5011071;28;20054;-44
2024/03/12 10:41:28;;;;;;;7.10;4.20;;;9.10;77.30;;;10.62;57.31;97618.44;5010729;28;20047;-44
2024/03/12 10:44:12;;;;;;;7.20;4.40;;;9.20;77.40;;;10.53;57.00;97613.25;5027977;28;20041;-43
2024/03/12 10:46:46;;;;;;;5.47;3.30;;;9.10;77.10;;;10.54;57.43;97605.06;5022574;28;20044;-43